Nearby METAR Reports

 

KDCA - Washington/Natl, Washington D.c., USA
Distance from station: NE 2mi, 3km
Updated: Sun, 19-Nov-2017 7:52am EST
Few Clouds
Few Clouds
 Wind from WNW
Wind: WNW 23 mph , 37 km/h, Gust: 37 mph , 59 km/h
Temperature: 48°F , 9°C
Wind Chill: 40°F , 4°C
Dew Point: 32°F , 0°C
Humidity: 54%
Barometer: 29.63 inHg , 1003.4 hPa
Clouds: Few Clouds
Visibility: 10 miles , 16 km
Cloud details: Few Clouds 3500 ft
Few Clouds 12000 ft
2017/11/19 12:52 KDCA 191252Z 29020G32KT 10SM FEW035 FEW120 09/00 A2963 RMK AO2 PK WND 28033/1200 SLP033 T00940000
KDAA - Fort Belvoir/Dav, Virginia, USA
Distance from station: SW 10mi, 16km
Updated: Sun, 19-Nov-2017 7:56am EST
Clear
Clear
 Wind from NW
Wind: NW 14 mph , 22 km/h, Gust: 33 mph , 54 km/h
Temperature: 50°F , 10°C
Wind Chill: 45°F , 7°C
Dew Point: 30°F , -1°C
Humidity: 47%
Barometer: 29.63 inHg , 1003.4 hPa
Clouds: Clear
Visibility: 10 miles , 16 km
2017/11/19 12:56 KDAA 191256Z AUTO 31012G29KT 10SM CLR 10/M01 A2963 RMK AO2 PK WND 30029/46 PRESRR SLP037 T00961009 $
 
KIAD - Wash Dc/Dulles, Virginia, USA
Distance from station: WNW 22mi, 35km
Updated: Sun, 19-Nov-2017 7:52am EST
Few Clouds
Few Clouds
 Wind from WNW
Wind: WNW 21 mph , 33 km/h, Gust: 35 mph , 56 km/h
Temperature: 46°F , 8°C
Wind Chill: 38°F , 3°C
Dew Point: 34°F , 1°C
Humidity: 62%
Barometer: 29.64 inHg , 1003.7 hPa
Clouds: Few Clouds
Visibility: 10 miles , 16 km
Cloud details: Few Clouds 4000 ft
Few Clouds 13000 ft
2017/11/19 12:52 KIAD 191252Z 30018G30KT 10SM FEW040 FEW130 08/01 A2964 RMK AO2 PK WND 30033/1217 SLP036 T00780006
KHEF - Manassas Muni, Virginia, USA
Distance from station: WSW 26mi, 41km
Updated: Sun, 19-Nov-2017 7:56am EST
Clear
Clear
 Wind from NW
Wind: NW 17 mph , 28 km/h, Gust: 26 mph , 43 km/h
Temperature: 48°F , 9°C
Wind Chill: 42°F , 6°C
Dew Point: 32°F , 0°C
Humidity: 54%
Barometer: 29.65 inHg , 1004.1 hPa
Clouds: Clear
Visibility: 10 miles , 16 km
2017/11/19 12:56 KHEF 191256Z 31015G23KT 10SM CLR 09/00 A2965 RMK AO2 SLP052 T00890000 PNO $
 
KRMN - Stafford Regnl, Virginia, USA
Distance from station: SW 36mi, 59km
Updated: Sun, 19-Nov-2017 8:35am EST
Clear
Clear
 Wind from NW
Wind: NW 14 mph , 22 km/h, Gust: 21 mph , 33 km/h
Temperature: 50°F , 10°C
Wind Chill: 45°F , 7°C
Dew Point: 30°F , -1°C
Humidity: 47%
Barometer: 29.71 inHg , 1006.1 hPa
Clouds: Clear
Visibility: 10 miles , 16 km
2017/11/19 13:35 KRMN 191335Z AUTO 31012G18KT 10SM CLR 10/M01 A2971 RMK AO2 T01011007
KNYG - Quantico Mcaf, Virginia, USA
Distance from station: SSW 26mi, 42km
Updated: Fri, 17-Nov-2017 8:56pm EST
NOT Current
Clear
Clear
 Wind from WNW
Wind: WNW 7 mph , 11 km/h
Temperature: 37°F , 3°C
Wind Chill: 32°F , 0°C
Dew Point: 34°F , 1°C
Humidity: 87%
Barometer: 30.14 inHg , 1020.7 hPa
Clouds: Clear
2017/11/18 01:56 KNYG 180156Z AUTO 30006KT CLR 03/01 A3014 RMK AO2 SLP207 T00330011 $
 
KJYO - Leesburg/Godfrey, Virginia, USA
Distance from station: WNW 31mi, 51km
Updated: Sun, 19-Nov-2017 8:35am EST
Overcast
Overcast
 Wind from WNW
Wind: WNW 20 mph , 31 km/h, Gust: 30 mph , 48 km/h
Temperature: 48°F , 9°C
Wind Chill: 41°F , 5°C
Dew Point: 36°F , 2°C
Humidity: 62%
Barometer: 29.69 inHg , 1005.4 hPa
Clouds: Overcast
Visibility: 10 miles , 16 km
Cloud details: Overcast 4000 ft
2017/11/19 13:35 KJYO 191335Z AUTO 30017G26KT 10SM OVC040 09/02 A2969 RMK AO2
KCJR - Culpeper, Virginia, USA
Distance from station: WSW 48mi, 77km
Updated: Sun, 19-Nov-2017 8:35am EST
Partly Cloudy
Partly Cloudy
 Wind from NW
Wind: NW 10 mph , 17 km/h, Gust: 17 mph , 28 km/h
Temperature: 52°F , 11°C
Dew Point: 28°F , -2°C
Humidity: 41%
Barometer: 29.69 inHg , 1005.4 hPa
Clouds: Partly Cloudy
Visibility: 10 miles , 16 km
Cloud details: Partly Cloudy 5000 ft
2017/11/19 13:35 KCJR 191335Z AUTO 32009G15KT 280V340 10SM SCT050 11/M02 A2969 RMK AO2 T01101018
 
KHWY - Warrenton, Virginia, USA
Distance from station: WSW 39mi, 63km
Updated: Thu, 09-Nov-2017 1:55pm EST
NOT Current
Haze, Overcast
Haze, Overcast
 Wind from calm
Wind: Calm
Temperature: 52°F , 11°C
Dew Point: 45°F , 7°C
Humidity: 77%
Barometer: 30.06 inHg , 1017.9 hPa
Summary: Haze
Clouds: Overcast
Visibility: 5 miles , 8 km
Cloud details: Overcast 800 ft
2017/11/09 18:55 KHWY 091855Z AUTO 00000KT 5SM HZ OVC008 11/07 A3006 RMK AO2 T01060073
KADW - Andrews Afb, Maryland, USA
Distance from station: E 11mi, 17km
Updated: Sun, 19-Nov-2017 7:56am EST
Few Clouds
Few Clouds
 Wind from WNW
Wind: WNW 18 mph , 30 km/h, Gust: 31 mph , 50 km/h
Temperature: 48°F , 9°C
Wind Chill: 41°F , 5°C
Dew Point: 32°F , 0°C
Humidity: 54%
Barometer: 29.61 inHg , 1002.7 hPa
Clouds: Few Clouds
Visibility: 10 miles , 16 km
Cloud details: Few Clouds 4500 ft
2017/11/19 12:56 KADW 191256Z AUTO 30016G27KT 10SM FEW045 09/00 A2961 RMK AO2 PK WND 30032/03 SLP034 T00871004 $
 
KCGS - College Park, Maryland, USA
Distance from station: NE 13mi, 21km
Updated: Sun, 19-Nov-2017 4:32am EST
NOT Current
Overcast
Overcast
 Wind from W
Wind: W 10 mph , 17 km/h, Gust: 17 mph , 28 km/h
Temperature: 59°F , 15°C
Dew Point: 54°F , 12°C
Humidity: 82%
Barometer: 29.36 inHg , 994.2 hPa
Clouds: Overcast
Visibility: 7 miles , 11 km
Cloud details: Partly Cloudy 2400 ft
Mostly Cloudy 3600 ft
Overcast 8000 ft
2017/11/19 09:32 KCGS 190932Z AUTO 27009G15KT 230V310 7SM SCT024 BKN036 OVC080 15/12 A2936 RMK AO1 T01500121
KFME - Fort Meade, Maryland, USA
Distance from station: NE 24mi, 38km
Updated: Sun, 19-Nov-2017 8:24am EST
Clear
Clear
 Wind from WNW
Wind: WNW 17 mph , 28 km/h, Gust: 31 mph , 50 km/h
Temperature: 46°F , 8°C
Wind Chill: 39°F , 4°C
Dew Point: 32°F , 0°C
Humidity: 57%
Barometer: 29.65 inHg , 1004.1 hPa
Clouds: Clear
Visibility: 10 miles , 16 km
2017/11/19 13:24 KFME 191324Z AUTO 29015G27KT 10SM CLR 08/00 A2965 RMK AO1
 
KGAI - Gaithersburg, Maryland, USA
Distance from station: NNW 24mi, 38km
Updated: Sun, 19-Nov-2017 7:56am EST
Mostly Cloudy
Mostly Cloudy
 Wind from W
Wind: W 9 mph , 15 km/h, Gust: 26 mph , 43 km/h
Temperature: 45°F , 7°C
Wind Chill: 40°F , 4°C
Dew Point: 32°F , 0°C
Humidity: 61%
Barometer: 29.63 inHg , 1003.4 hPa
Clouds: Mostly Cloudy
Visibility: 10 miles , 16 km
Cloud details: Mostly Cloudy 4200 ft
2017/11/19 12:56 KGAI 191256Z AUTO 28008G23KT 230V320 10SM BKN042 07/00 A2963 RMK AO2 PRESRR SLP065 T00720000
KBWI - Balto/Wash Intl, Maryland, USA
Distance from station: NE 31mi, 50km
Updated: Sun, 19-Nov-2017 7:54am EST
Partly Cloudy
Partly Cloudy
 Wind from W
Wind: W 17 mph , 28 km/h, Gust: 33 mph , 54 km/h
Temperature: 46°F , 8°C
Wind Chill: 39°F , 4°C
Dew Point: 34°F , 1°C
Humidity: 62%
Barometer: 29.59 inHg , 1002 hPa
Clouds: Partly Cloudy
Visibility: 10 miles , 16 km
Cloud details: Partly Cloudy 4200 ft
2017/11/19 12:54 KBWI 191254Z 28015G29KT 10SM SCT042 08/01 A2959 RMK AO2 PK WND 28033/1234 SLP018 T00830006
 
KNAK - Annapolis/Naval, Maryland, USA
Distance from station: ENE 33mi, 53km
Updated: Fri, 17-Nov-2017 8:54pm EST
NOT Current
Clear
Clear
 Wind from calm
Wind: Calm
Temperature: 41°F , 5°C
Dew Point: 37°F , 3°C
Humidity: 87%
Barometer: 30.13 inHg , 1020.3 hPa
Clouds: Clear
Visibility: 10 miles , 16 km
2017/11/18 01:54 KNAK 180154Z AUTO 00000KT 10SM CLR 05/03 A3013 RMK AO2 SLP203 T00500028
KDMH - Baltimore/Dwntwn, Maryland, USA
Distance from station: NE 39mi, 63km
Updated: Sat, 18-Nov-2017 8:54pm EST
NOT Current

 
Temperature: 61°F , 16°C
Dew Point: 45°F , 7°C
Humidity: 55%
Barometer: 29.49 inHg , 998.6 hPa
2017/11/19 01:54 KDMH 190154Z AUTO 16/07 A2949 RMK AO1 SLP986 T01610072
 
KW29 - Stevensville, Maryland, USA
Distance from station: ENE 41mi, 65km
Updated: Sun, 19-Nov-2017 8:20am EST
Clear
Clear
 Wind from NW
Wind: NW 17 mph , 28 km/h, Gust: 30 mph , 48 km/h
Temperature: 50°F , 10°C
Wind Chill: 44°F , 7°C
Dew Point: 34°F , 1°C
Humidity: 54%
Barometer: 29.62 inHg , 1003 hPa
Clouds: Clear
Visibility: 10 miles , 16 km
2017/11/19 13:20 KW29 191320Z AUTO 31015G26KT 10SM CLR 10/01 A2962 RMK AO2
KFDK - Frederick, Maryland, USA
Distance from station: NNW 43mi, 70km
Updated: Sun, 19-Nov-2017 7:47am EST

 
Visibility: 48 miles
2017/11/19 12:47 KFDK 191247Z 30013G23 10SM BKN043 08/M01 A2964
 
KEZF - Fredericksb/Shan, Virginia, USA
Distance from station: SSW 44mi, 71km
Updated: Sun, 19-Nov-2017 8:35am EST
Clear
Clear
 Wind from WNW
Wind: WNW 14 mph , 22 km/h, Gust: 21 mph , 33 km/h
Temperature: 54°F , 12°C
Dew Point: 34°F , 1°C
Humidity: 47%
Barometer: 29.67 inHg , 1004.7 hPa
Clouds: Clear
Visibility: 10 miles , 16 km
2017/11/19 13:35 KEZF 191335Z AUTO 30012G18KT 10SM CLR 12/01 A2967 RMK AO2 T01160009
K2W6 - St Marys (duke), Maryland, USA
Distance from station: SE 45mi, 73km
Updated: Sun, 19-Nov-2017 8:26am EST
Clear
Clear
 Wind from NW
Wind: NW 13 mph , 20 km/h, Gust: 24 mph , 39 km/h
Temperature: 50°F , 10°C
Wind Chill: 45°F , 7°C
Dew Point: 32°F , 0°C
Humidity: 50%
Barometer: 29.65 inHg , 1004.1 hPa
Clouds: Clear
Visibility: 10 miles , 16 km
2017/11/19 13:26 K2W6 191326Z AUTO 31011G21KT 270V350 10SM CLR 10/00 A2965 RMK AO1

Metar display script from Saratoga-Weather.org